createdAt,value
2023-04-29T00:00:15.242Z,50.42
2023-04-29T00:03:37.086Z,50.56
2023-04-29T00:06:38.921Z,50.89
2023-04-29T00:09:41.091Z,51.23
2023-04-29T00:12:42.879Z,50.77
2023-04-29T00:15:45.658Z,50.40
2023-04-29T00:18:47.348Z,50.63
2023-04-29T00:21:49.143Z,49.97
2023-04-29T00:24:50.831Z,49.60
2023-04-29T00:27:52.477Z,49.71
2023-04-29T00:30:55.386Z,49.32
2023-04-29T00:33:57.492Z,49.00
2023-04-29T00:36:59.159Z,48.89
2023-04-29T00:40:01.028Z,48.79
2023-04-29T00:43:02.675Z,48.93
2023-04-29T00:46:04.448Z,48.87
2023-04-29T00:49:07.713Z,48.84
2023-04-29T00:52:11.832Z,49.40
2023-04-29T00:55:13.847Z,49.72
2023-04-29T00:58:17.865Z,49.51
2023-04-29T01:01:19.710Z,49.83
2023-04-29T01:04:21.881Z,51.17
2023-04-29T01:07:41.833Z,50.86
2023-04-29T01:10:54.791Z,50.95
2023-04-29T01:14:02.593Z,51.11
2023-04-29T01:17:19.028Z,50.63
2023-04-29T01:20:21.853Z,50.86
2023-04-29T01:23:28.373Z,50.61
2023-04-29T01:26:32.580Z,50.64
2023-04-29T01:29:59.196Z,51.24
2023-04-29T01:33:22.757Z,51.01
2023-04-29T01:36:36.691Z,51.00
2023-04-29T01:39:41.312Z,50.79
2023-04-29T01:43:03.769Z,51.29
2023-04-29T01:46:10.425Z,51.98
2023-04-29T01:49:12.398Z,51.94
2023-04-29T01:52:14.114Z,52.08
2023-04-29T01:55:19.916Z,52.23
2023-04-29T01:58:32.559Z,52.27
2023-04-29T02:02:04.181Z,52.27
2023-04-29T02:05:07.016Z,52.41
2023-04-29T02:08:08.821Z,52.17
2023-04-29T02:11:13.943Z,52.54
2023-04-29T02:14:16.656Z,52.89
2023-04-29T02:17:18.390Z,52.70
2023-04-29T02:20:20.516Z,53.05
2023-04-29T02:23:22.256Z,53.72
2023-04-29T02:26:24.019Z,53.43
2023-04-29T02:29:26.624Z,53.18
2023-04-29T02:32:29.804Z,53.05
2023-04-29T02:35:31.516Z,52.97
2023-04-29T02:38:33.428Z,52.96
2023-04-29T02:41:35.169Z,52.86
2023-04-29T02:44:37.014Z,52.84
2023-04-29T02:47:38.717Z,52.81
2023-04-29T02:50:40.475Z,53.32
2023-04-29T02:53:42.259Z,53.48
2023-04-29T02:56:44.062Z,53.69
2023-04-29T02:59:45.882Z,53.54
2023-04-29T03:02:47.714Z,53.27
2023-04-29T03:05:49.730Z,53.34
2023-04-29T03:08:52.439Z,53.15
2023-04-29T03:11:54.141Z,53.03
2023-04-29T03:14:56.367Z,53.11
2023-04-29T03:18:01.145Z,53.15
2023-04-29T03:21:04.083Z,52.98
2023-04-29T03:24:06.080Z,53.05
2023-04-29T03:27:08.777Z,53.09
2023-04-29T03:30:10.741Z,53.37
2023-04-29T03:33:17.685Z,53.62
2023-04-29T03:36:19.557Z,54.00
2023-04-29T03:39:34.408Z,54.20
2023-04-29T03:42:36.090Z,54.37
2023-04-29T03:45:38.039Z,54.65
2023-04-29T03:48:40.363Z,54.71
2023-04-29T03:51:44.511Z,54.57
2023-04-29T03:54:49.106Z,55.06
2023-04-29T03:57:51.034Z,55.37
2023-04-29T04:00:54.276Z,55.63
2023-04-29T04:03:57.362Z,55.56
2023-04-29T04:07:00.269Z,55.48
2023-04-29T04:10:03.867Z,55.35
2023-04-29T04:13:05.896Z,55.85
2023-04-29T04:16:07.769Z,55.56
2023-04-29T04:19:09.844Z,56.03
2023-04-29T04:22:13.081Z,56.02
2023-04-29T04:25:15.862Z,55.91
2023-04-29T04:28:17.659Z,55.75
2023-04-29T04:31:29.267Z,55.64
2023-04-29T04:34:31.016Z,55.70
2023-04-29T04:37:34.184Z,55.78
2023-04-29T04:40:36.711Z,55.86
2023-04-29T04:43:53.105Z,55.78
2023-04-29T04:47:01.547Z,55.63
2023-04-29T04:50:29.840Z,55.51
2023-04-29T04:53:31.443Z,55.50
2023-04-29T04:56:37.846Z,55.29
2023-04-29T04:59:40.415Z,55.26
2023-04-29T05:02:42.326Z,55.26
2023-04-29T05:05:44.310Z,55.26
2023-04-29T05:08:46.440Z,55.36
2023-04-29T05:11:48.338Z,55.52
2023-04-29T05:14:54.828Z,56.13
2023-04-29T05:17:56.580Z,56.99
2023-04-29T05:20:59.438Z,57.58
2023-04-29T05:24:01.157Z,57.92
2023-04-29T05:27:03.772Z,57.48
2023-04-29T05:30:06.111Z,57.87
2023-04-29T05:33:08.378Z,57.93
2023-04-29T05:36:10.386Z,58.25
2023-04-29T05:39:12.997Z,58.31
2023-04-29T05:42:15.135Z,58.45
2023-04-29T05:45:20.822Z,58.42
2023-04-29T05:48:24.590Z,58.91
2023-04-29T05:51:27.735Z,58.89
2023-04-29T05:54:29.452Z,59.01
2023-04-29T05:57:31.481Z,59.32
2023-04-29T06:00:33.139Z,59.25
2023-04-29T06:03:37.110Z,59.37
2023-04-29T06:06:57.460Z,59.43
2023-04-29T06:10:16.458Z,59.53
2023-04-29T06:13:20.089Z,59.58
2023-04-29T06:16:21.966Z,59.75
2023-04-29T06:19:24.765Z,59.78
2023-04-29T06:22:27.277Z,60.01
2023-04-29T06:25:30.495Z,60.11
2023-04-29T06:28:32.317Z,60.33
2023-04-29T06:31:34.449Z,60.41
2023-04-29T06:34:38.861Z,60.48
2023-04-29T06:38:07.915Z,60.59
2023-04-29T06:41:09.726Z,60.88
2023-04-29T06:44:43.329Z,61.10
2023-04-29T06:48:01.530Z,61.26
2023-04-29T06:51:16.704Z,61.28
2023-04-29T06:54:18.409Z,61.22
2023-04-29T06:57:20.336Z,61.36
2023-04-29T07:00:22.239Z,61.35
2023-04-29T07:03:24.075Z,61.50
2023-04-29T07:06:26.344Z,61.56
2023-04-29T07:09:28.069Z,61.76
2023-04-29T07:12:29.857Z,61.87
2023-04-29T07:15:34.309Z,61.97
2023-04-29T07:18:36.034Z,62.19
2023-04-29T07:21:37.815Z,62.18
2023-04-29T07:24:39.859Z,62.25
2023-04-29T07:27:41.546Z,62.29
2023-04-29T07:30:43.372Z,62.32
2023-04-29T07:33:46.735Z,62.36
2023-04-29T07:36:48.461Z,62.38
2023-04-29T07:39:50.636Z,62.59
2023-04-29T07:42:52.494Z,62.78
2023-04-29T07:45:54.269Z,62.53
2023-04-29T07:48:56.082Z,62.59
2023-04-29T07:51:57.831Z,62.44
2023-04-29T07:54:59.520Z,62.56
2023-04-29T07:58:01.325Z,62.65
2023-04-29T08:01:09.764Z,62.59
2023-04-29T08:04:11.763Z,62.57
2023-04-29T08:07:22.705Z,62.54
2023-04-29T08:10:26.674Z,62.50
2023-04-29T08:13:28.424Z,62.54
2023-04-29T08:16:31.103Z,62.44
2023-04-29T08:19:32.982Z,62.05
2023-04-29T08:22:34.959Z,61.75
2023-04-29T08:25:36.627Z,61.66
2023-04-29T08:28:38.878Z,60.94
2023-04-29T08:31:40.698Z,60.54
2023-04-29T08:34:43.907Z,60.39
2023-04-29T08:37:47.144Z,59.65
2023-04-29T08:40:49.018Z,59.29
2023-04-29T08:43:50.826Z,58.84
2023-04-29T08:46:53.443Z,58.47
2023-04-29T08:49:55.186Z,58.08
2023-04-29T08:52:56.915Z,57.84
2023-04-29T08:56:08.061Z,57.64
2023-04-29T08:59:10.212Z,57.56
2023-04-29T09:02:16.485Z,57.35
2023-04-29T09:05:18.438Z,57.42
2023-04-29T09:08:24.098Z,57.18
2023-04-29T09:11:27.525Z,57.26
2023-04-29T09:14:32.799Z,57.14
2023-04-29T09:17:42.557Z,57.16
2023-04-29T09:20:44.329Z,57.11
2023-04-29T09:23:57.162Z,57.13
2023-04-29T09:27:02.745Z,57.23
2023-04-29T09:30:04.818Z,57.22
2023-04-29T09:33:08.627Z,57.24
2023-04-29T09:36:10.400Z,57.33
2023-04-29T09:39:16.931Z,57.35
2023-04-29T09:42:18.863Z,57.52
2023-04-29T09:45:43.363Z,57.43
2023-04-29T09:48:45.108Z,57.34
2023-04-29T09:51:57.910Z,57.33
2023-04-29T09:55:04.810Z,57.22
2023-04-29T09:58:06.534Z,57.43
2023-04-29T10:01:08.994Z,57.39
2023-04-29T10:04:13.484Z,57.66
2023-04-29T10:40:30.686Z,59.42
2023-04-29T10:43:32.598Z,59.26
2023-04-29T10:46:34.379Z,59.93
2023-04-29T10:49:36.136Z,60.09
2023-04-29T10:52:55.164Z,60.69
2023-04-29T10:56:07.244Z,60.69
2023-04-29T10:59:13.680Z,60.50
2023-04-29T11:02:15.467Z,60.53
2023-04-29T11:05:35.421Z,60.99
2023-04-29T11:08:39.305Z,60.71
2023-04-29T11:12:02.728Z,60.53
2023-04-29T11:15:07.838Z,60.53
2023-04-29T11:18:11.018Z,60.55
2023-04-29T11:21:14.060Z,60.58
2023-04-29T11:24:16.927Z,60.68
2023-04-29T11:27:22.255Z,60.73
2023-04-29T11:30:24.632Z,60.81
2023-04-29T11:33:27.400Z,60.76
2023-04-29T11:36:31.956Z,60.76
2023-04-29T11:39:38.040Z,60.80
2023-04-29T11:42:44.936Z,60.89
2023-04-29T11:45:47.670Z,61.08
2023-04-29T11:48:50.143Z,61.19
2023-04-29T11:51:51.808Z,61.27
2023-04-29T11:54:53.966Z,61.78
2023-04-29T11:57:56.248Z,62.22
2023-04-29T12:00:58.441Z,62.78
2023-04-29T12:04:00.606Z,63.36
2023-04-29T12:07:05.492Z,62.91
2023-04-29T12:10:09.298Z,64.07
2023-04-29T12:13:14.075Z,64.90
2023-04-29T12:16:17.575Z,65.37
2023-04-29T12:19:19.479Z,65.36
2023-04-29T12:22:21.223Z,65.63
2023-04-29T12:25:27.513Z,65.94
2023-04-29T12:28:30.125Z,65.79
2023-04-29T12:31:34.159Z,65.73
2023-04-29T12:34:35.871Z,65.80
2023-04-29T12:37:37.836Z,65.60
2023-04-29T12:40:39.648Z,65.66
2023-04-29T12:43:41.928Z,65.94
2023-04-29T12:46:43.565Z,65.82
2023-04-29T12:49:49.617Z,65.31
2023-04-29T12:52:51.383Z,65.44
2023-04-29T12:55:53.400Z,64.70
2023-04-29T12:58:55.111Z,63.36
2023-04-29T13:01:56.965Z,62.64
2023-04-29T13:04:59.450Z,62.47
2023-04-29T13:08:01.660Z,62.50
2023-04-29T13:11:03.408Z,62.52
2023-04-29T13:14:05.890Z,62.60
2023-04-29T13:17:07.913Z,63.09
2023-04-29T13:20:11.198Z,63.19
2023-04-29T13:23:12.872Z,63.02
2023-04-29T13:26:14.661Z,62.75
2023-04-29T13:29:16.370Z,63.16
2023-04-29T13:32:20.792Z,63.38
2023-04-29T13:35:22.666Z,63.38
2023-04-29T13:38:24.494Z,63.48
2023-04-29T13:41:26.880Z,63.80
2023-04-29T13:44:35.825Z,64.13
2023-04-29T13:48:07.678Z,64.07
2023-04-29T14:00:57.034Z,65.36
2023-04-29T14:03:47.205Z,65.48
2023-04-29T14:06:49.397Z,65.17
2023-04-29T14:09:51.316Z,65.55
2023-04-29T14:12:52.962Z,65.22
2023-04-29T14:15:56.033Z,64.86
2023-04-29T14:18:57.780Z,64.38
2023-04-29T14:21:59.471Z,64.18
2023-04-29T14:25:01.135Z,63.83
2023-04-29T14:28:08.711Z,63.91
2023-04-29T14:31:18.758Z,63.77
2023-04-29T14:34:20.668Z,63.58
2023-04-29T14:37:22.518Z,63.43
2023-04-29T14:40:24.239Z,63.41
2023-04-29T14:43:25.884Z,62.71
2023-04-29T14:46:28.985Z,62.35
2023-04-29T14:49:31.823Z,62.29
2023-04-29T14:52:33.640Z,62.19
2023-04-29T14:55:35.361Z,62.00
2023-04-29T14:58:37.247Z,61.93
2023-04-29T15:01:39.183Z,62.21
2023-04-29T15:04:44.984Z,62.15
2023-04-29T15:07:47.002Z,62.32
2023-04-29T15:10:49.413Z,62.27
2023-04-29T15:13:51.609Z,62.28
2023-04-29T15:16:53.484Z,62.27
2023-04-29T15:19:55.237Z,62.38
2023-04-29T15:22:56.979Z,62.31
2023-04-29T15:25:58.839Z,62.35
2023-04-29T15:29:00.807Z,62.43
2023-04-29T15:32:02.721Z,62.52
2023-04-29T15:35:06.027Z,62.72
2023-04-29T15:38:07.746Z,62.87
2023-04-29T15:41:09.425Z,63.04
2023-04-29T15:44:11.330Z,63.18
2023-04-29T15:47:13.135Z,63.40
2023-04-29T15:50:14.898Z,64.08
2023-04-29T15:53:16.565Z,65.10
2023-04-29T15:56:18.686Z,66.31
2023-04-29T15:59:23.203Z,67.08
2023-04-29T16:02:25.132Z,68.00
2023-04-29T16:05:27.142Z,68.53
2023-04-29T16:08:29.361Z,68.26
2023-04-29T16:11:32.082Z,69.37
2023-04-29T16:14:33.871Z,69.91
2023-04-29T16:17:36.305Z,70.40
2023-04-29T16:20:37.971Z,70.00
2023-04-29T16:23:39.862Z,70.61
2023-04-29T16:26:42.079Z,71.10
2023-04-29T16:29:44.037Z,71.60
2023-04-29T16:32:48.832Z,71.92
2023-04-29T16:35:51.129Z,72.13
2023-04-29T16:38:56.707Z,72.42
2023-04-29T16:41:58.989Z,72.00
2023-04-29T16:45:00.993Z,72.37
2023-04-29T16:48:03.087Z,72.78
2023-04-29T16:51:05.045Z,73.16
2023-04-29T16:54:07.474Z,73.58
2023-04-29T16:57:09.194Z,73.85
2023-04-29T17:00:11.771Z,74.07
2023-04-29T17:03:14.082Z,74.22
2023-04-29T17:06:16.014Z,74.31
2023-04-29T17:09:18.107Z,74.26
2023-04-29T17:12:19.937Z,74.02
2023-04-29T17:15:21.871Z,73.99
2023-04-29T17:18:23.600Z,74.04
2023-04-29T17:21:25.313Z,74.08
2023-04-29T17:24:26.986Z,74.03
2023-04-29T17:27:28.685Z,73.89
2023-04-29T17:30:30.564Z,74.00
2023-04-29T17:33:35.003Z,74.21
2023-04-29T17:36:36.813Z,74.22
2023-04-29T17:39:38.498Z,74.17
2023-04-29T17:42:40.296Z,74.25
2023-04-29T17:45:42.009Z,74.36
2023-04-29T17:48:43.724Z,74.38
2023-04-29T17:51:45.455Z,74.41
2023-04-29T17:54:50.163Z,74.49
2023-04-29T17:57:52.125Z,74.55
2023-04-29T18:00:55.430Z,74.59
2023-04-29T18:03:57.340Z,74.59
2023-04-29T18:06:59.121Z,74.67
2023-04-29T18:10:00.867Z,74.78
2023-04-29T18:13:02.830Z,74.88
2023-04-29T18:16:06.514Z,75.03
2023-04-29T18:19:08.663Z,75.19
2023-04-29T18:22:10.365Z,75.27
2023-04-29T18:25:12.069Z,75.33
2023-04-29T18:28:24.672Z,75.28
2023-04-29T18:31:27.288Z,75.33
2023-04-29T18:34:29.216Z,75.30
2023-04-29T18:37:31.094Z,75.30
2023-04-29T18:40:32.963Z,75.26
2023-04-29T18:43:34.685Z,75.23
2023-04-29T18:46:36.512Z,75.34
2023-04-29T18:49:38.535Z,75.46
2023-04-29T18:52:41.310Z,75.53
2023-04-29T18:55:43.638Z,75.66
2023-04-29T18:58:45.226Z,75.85
2023-04-29T19:01:47.863Z,75.70
2023-04-29T19:04:49.888Z,75.82
2023-04-29T19:07:51.669Z,75.99
2023-04-29T19:10:53.656Z,76.12
2023-04-29T19:13:55.588Z,76.08
2023-04-29T19:16:57.298Z,76.18
2023-04-29T19:19:59.355Z,76.11
2023-04-29T19:23:01.111Z,76.01
2023-04-29T19:26:03.089Z,75.72
2023-04-29T19:29:04.811Z,75.42
2023-04-29T19:32:06.690Z,75.29
2023-04-29T19:35:08.722Z,75.26
2023-04-29T19:38:10.555Z,75.33
2023-04-29T19:41:12.227Z,75.37
2023-04-29T19:44:14.032Z,75.48
2023-04-29T19:47:15.701Z,75.62
2023-04-29T19:50:18.258Z,75.77
2023-04-29T19:53:20.039Z,75.78
2023-04-29T19:56:22.722Z,75.89
2023-04-29T19:59:24.409Z,76.02
2023-04-29T20:02:26.509Z,76.10
2023-04-29T20:05:28.506Z,76.17
2023-04-29T20:08:30.449Z,76.22
2023-04-29T20:11:32.185Z,76.36
2023-04-29T20:14:33.841Z,76.44
2023-04-29T20:17:36.863Z,76.58
2023-04-29T20:20:38.647Z,76.69
2023-04-29T20:23:40.450Z,76.73
2023-04-29T20:26:42.130Z,76.76
2023-04-29T20:29:44.342Z,76.83
2023-04-29T20:32:46.478Z,76.84
2023-04-29T20:35:48.129Z,76.68
2023-04-29T20:38:50.069Z,76.68
2023-04-29T20:41:51.819Z,76.74
2023-04-29T20:44:54.383Z,76.80
2023-04-29T20:47:56.118Z,76.81
2023-04-29T20:50:57.881Z,76.93
2023-04-29T20:53:59.567Z,76.99
2023-04-29T20:57:04.766Z,77.12
2023-04-29T21:00:07.102Z,77.21
2023-04-29T21:03:08.851Z,77.29
2023-04-29T21:06:11.195Z,77.18
2023-04-29T21:09:13.135Z,77.18
2023-04-29T21:12:14.854Z,77.37
2023-04-29T21:15:16.857Z,77.51
2023-04-29T21:18:18.544Z,77.58
2023-04-29T21:21:22.363Z,77.66
2023-04-29T21:24:26.202Z,77.68
2023-04-29T21:27:27.937Z,77.73
2023-04-29T21:30:29.684Z,77.82
2023-04-29T21:33:31.311Z,77.84
2023-04-29T21:36:33.289Z,77.91
2023-04-29T21:39:35.194Z,77.98
2023-04-29T21:42:37.248Z,78.01
2023-04-29T21:45:39.399Z,78.04
2023-04-29T21:48:41.414Z,78.09
2023-04-29T21:51:43.400Z,78.06
2023-04-29T21:54:45.211Z,78.12
2023-04-29T21:57:46.907Z,78.11
2023-04-29T22:00:57.903Z,78.10
2023-04-29T22:03:59.763Z,78.08
2023-04-29T22:07:01.438Z,77.93
2023-04-29T22:10:03.618Z,77.94
2023-04-29T22:13:05.320Z,77.94
2023-04-29T22:16:07.710Z,78.01
2023-04-29T22:19:09.395Z,77.95
2023-04-29T22:22:11.124Z,77.96
2023-04-29T22:25:12.802Z,77.99
2023-04-29T22:28:14.682Z,77.95
2023-04-29T22:31:16.415Z,77.96
2023-04-29T22:34:18.161Z,77.97
2023-04-29T22:37:19.847Z,77.89
2023-04-29T22:40:21.501Z,77.98
2023-04-29T22:43:23.438Z,78.03
2023-04-29T22:46:25.555Z,78.09
2023-04-29T22:49:27.554Z,78.11
2023-04-29T22:52:29.592Z,78.11
2023-04-29T22:55:31.259Z,78.10
2023-04-29T22:58:33.252Z,78.13
2023-04-29T23:01:36.085Z,78.14
2023-04-29T23:04:37.855Z,78.21
2023-04-29T23:07:40.532Z,78.25
2023-04-29T23:10:48.202Z,78.31
2023-04-29T23:13:50.077Z,78.39
2023-04-29T23:16:52.683Z,78.31
2023-04-29T23:19:54.640Z,78.33
2023-04-29T23:22:56.469Z,78.31
2023-04-29T23:25:58.123Z,78.22
2023-04-29T23:28:59.972Z,78.29
2023-04-29T23:32:01.976Z,78.31
2023-04-29T23:35:03.929Z,78.37
2023-04-29T23:38:05.875Z,78.37
2023-04-29T23:41:07.607Z,78.39
2023-04-29T23:44:09.323Z,78.43
2023-04-29T23:47:11.068Z,78.42
2023-04-29T23:50:12.845Z,78.42
2023-04-29T23:53:15.117Z,78.41
2023-04-29T23:56:16.864Z,78.43
2023-04-29T23:59:18.620Z,78.28
